Decoded Metar for LTCT ( in ) (IATA:) | Meteo·Mobile Aviation Weather
aviador You're here:

LTCT Decoded Metar

in
Report Time2019-01-16 16:50:00
UTC Time2019-01-16 18:04:57
Flight Rules Old
Wind180° at 05 kt
W.Decomp.*RWY 12: 2.5 kt HW 4.3 kt RCW
W.Rank180° ranks 36
Current wind is below 180° avg. (7.2)
Visibility9999 m
Phenomena:N/A
Clouds:Scattered 080 Hf
Expected CloudBase > 2,000 ft AGL from Temp-Dew spread
CeilingNone
Temp00°C
Dew Point-5°C (69% RH)
AAT-4.4°C
QNH1006 hPa
Raw Report
METAR LTCT 161650Z 18005KT 9999 SCT080 00/M05 Q1006=

Extra information for LTCT:More info

Social comments